createdAt,value
2018-09-15T00:01:07.913Z,95320.56
2018-09-15T00:03:35.900Z,95319.20
2018-09-15T00:06:03.918Z,95319.68
2018-09-15T00:08:31.964Z,95315.67
2018-09-15T00:11:00.447Z,95313.07
2018-09-15T00:13:28.539Z,95321.63
2018-09-15T00:15:56.471Z,95312.77
2018-09-15T00:18:24.404Z,95319.72
2018-09-15T00:20:52.317Z,95310.30
2018-09-15T00:23:20.299Z,95309.25
2018-09-15T00:25:48.258Z,95313.66
2018-09-15T00:28:17.146Z,95314.77
2018-09-15T00:30:45.058Z,95317.38
2018-09-15T00:33:13.012Z,95316.94
2018-09-15T00:35:40.979Z,95316.98
2018-09-15T00:38:12.844Z,95319.40
2018-09-15T00:40:40.826Z,95312.05
2018-09-15T00:43:08.710Z,95312.97
2018-09-15T00:45:36.604Z,95319.11
2018-09-15T00:48:04.527Z,95319.19
2018-09-15T00:50:32.469Z,95327.16
2018-09-15T00:53:00.348Z,95294.02
2018-09-15T00:55:28.267Z,95317.62
2018-09-15T00:57:56.410Z,95316.13
2018-09-15T01:00:24.360Z,95313.69
2018-09-15T01:02:52.406Z,95322.97
2018-09-15T01:05:20.472Z,95311.53
2018-09-15T01:07:48.358Z,95316.44
2018-09-15T01:10:16.290Z,95329.89
2018-09-15T01:12:44.173Z,95321.32
2018-09-15T01:15:12.102Z,95323.36
2018-09-15T01:17:40.101Z,95317.70
2018-09-15T01:20:08.119Z,95334.70
2018-09-15T01:22:35.999Z,95325.12
2018-09-15T01:25:03.944Z,95328.79
2018-09-15T01:27:31.957Z,95327.84
2018-09-15T01:29:59.826Z,95334.06
2018-09-15T01:32:28.266Z,95334.04
2018-09-15T01:34:56.829Z,95333.95
2018-09-15T01:37:24.940Z,95337.63
2018-09-15T01:39:52.964Z,95332.20
2018-09-15T01:42:21.039Z,95328.36
2018-09-15T01:44:49.341Z,95326.19
2018-09-15T01:47:17.352Z,95324.62
2018-09-15T01:49:45.871Z,95320.84
2018-09-15T01:52:13.998Z,95322.11
2018-09-15T01:54:42.055Z,95313.37
2018-09-15T01:57:10.080Z,95319.13
2018-09-15T01:59:38.139Z,95315.09
2018-09-15T02:02:06.179Z,95314.56
2018-09-15T02:04:34.232Z,95315.33
2018-09-15T02:07:02.282Z,95316.78
2018-09-15T02:09:30.596Z,95317.81
2018-09-15T02:11:58.516Z,95321.39
2018-09-15T02:14:26.363Z,95318.94
2018-09-15T02:16:54.316Z,95323.53
2018-09-15T02:19:22.194Z,95325.96
2018-09-15T02:21:50.101Z,95320.39
2018-09-15T02:24:18.068Z,95323.73
2018-09-15T02:26:46.076Z,95317.67
2018-09-15T02:29:14.008Z,95326.15
2018-09-15T02:31:41.967Z,95323.75
2018-09-15T02:34:09.943Z,95322.52
2018-09-15T02:36:38.062Z,95313.71
2018-09-15T02:39:07.563Z,95307.68
2018-09-15T02:41:35.588Z,95322.22
2018-09-15T02:44:03.487Z,95320.73
2018-09-15T02:46:31.582Z,95324.64
2018-09-15T02:48:59.502Z,95325.73
2018-09-15T02:51:27.386Z,95325.52
2018-09-15T02:53:55.373Z,95326.84
2018-09-15T02:56:23.490Z,95323.13
2018-09-15T02:58:51.402Z,95330.73
2018-09-15T03:01:19.328Z,95328.44
2018-09-15T03:03:47.288Z,95340.59
2018-09-15T03:06:15.270Z,95338.34
2018-09-15T03:08:43.238Z,95337.20
2018-09-15T03:11:14.031Z,95340.20
2018-09-15T03:13:42.013Z,95333.88
2018-09-15T03:16:09.873Z,95341.63
2018-09-15T03:18:37.926Z,95341.63
2018-09-15T03:21:06.139Z,95338.67
2018-09-15T03:23:33.999Z,95337.91
2018-09-15T03:26:02.043Z,95335.76
2018-09-15T03:28:29.921Z,95337.61
2018-09-15T03:30:57.934Z,95336.13
2018-09-15T03:33:25.938Z,95337.38
2018-09-15T03:35:53.830Z,95346.97
2018-09-15T03:38:21.802Z,95350.81
2018-09-15T03:40:49.744Z,95343.33
2018-09-15T03:43:18.717Z,95346.42
2018-09-15T03:45:46.707Z,95344.11
2018-09-15T03:48:14.636Z,95345.35
2018-09-15T03:50:42.542Z,95345.28
2018-09-15T03:53:10.470Z,95351.58
2018-09-15T03:55:38.411Z,95355.47
2018-09-15T03:58:06.390Z,95351.86
2018-09-15T04:00:34.256Z,95351.63
2018-09-15T04:03:02.187Z,95355.16
2018-09-15T04:05:30.238Z,95361.93
2018-09-15T04:07:58.195Z,95367.35
2018-09-15T04:10:26.211Z,95368.31
2018-09-15T04:12:54.102Z,95366.17
2018-09-15T04:15:22.054Z,95371.62
2018-09-15T04:17:50.007Z,95379.06
2018-09-15T04:20:17.938Z,95385.69
2018-09-15T04:22:45.789Z,95384.00
2018-09-15T04:25:13.726Z,95380.88
2018-09-15T04:27:41.662Z,95381.92
2018-09-15T04:30:09.571Z,95374.28
2018-09-15T04:32:37.540Z,95381.66
2018-09-15T04:35:05.454Z,95383.73
2018-09-15T04:37:33.547Z,95381.38
2018-09-15T04:40:01.591Z,95393.59
2018-09-15T04:42:29.549Z,95394.64
2018-09-15T04:44:57.541Z,95396.59
2018-09-15T04:47:25.695Z,95399.47
2018-09-15T04:49:53.706Z,95407.14
2018-09-15T04:52:21.630Z,95410.94
2018-09-15T04:54:49.704Z,95412.16
2018-09-15T04:57:17.679Z,95420.16
2018-09-15T04:59:45.805Z,95412.30
2018-09-15T05:02:13.791Z,95414.80
2018-09-15T05:04:41.884Z,95416.47
2018-09-15T05:07:09.875Z,95411.98
2018-09-15T05:09:37.880Z,95422.48
2018-09-15T05:12:05.864Z,95422.52
2018-09-15T05:14:33.780Z,95428.61
2018-09-15T05:17:01.708Z,95424.48
2018-09-15T05:19:29.638Z,95421.35
2018-09-15T05:21:57.830Z,95425.87
2018-09-15T05:24:26.024Z,95422.62
2018-09-15T05:26:54.015Z,95424.14
2018-09-15T05:29:21.963Z,95424.58
2018-09-15T05:31:49.837Z,95425.38
2018-09-15T05:34:18.584Z,95426.07
2018-09-15T05:36:46.574Z,95422.92
2018-09-15T05:39:14.530Z,95429.28
2018-09-15T05:41:42.842Z,95430.59
2018-09-15T05:44:10.758Z,95425.02
2018-09-15T05:46:38.785Z,95432.27
2018-09-15T05:49:06.766Z,95429.16
2018-09-15T05:51:34.660Z,95425.86
2018-09-15T05:54:02.693Z,95424.91
2018-09-15T05:56:30.583Z,95431.61
2018-09-15T05:58:58.524Z,95429.02
2018-09-15T06:01:26.729Z,95438.41
2018-09-15T06:03:55.120Z,95431.22
2018-09-15T06:06:24.119Z,95438.84
2018-09-15T06:08:52.270Z,95435.70
2018-09-15T06:11:20.237Z,95443.89
2018-09-15T06:13:48.263Z,95434.86
2018-09-15T06:16:16.206Z,95435.16
2018-09-15T06:18:44.244Z,95441.55
2018-09-15T06:21:12.173Z,95443.08
2018-09-15T06:23:40.163Z,95446.20
2018-09-15T06:26:09.417Z,95446.16
2018-09-15T06:28:37.428Z,95433.63
2018-09-15T06:31:05.779Z,95433.79
2018-09-15T06:33:33.932Z,95438.96
2018-09-15T06:36:01.934Z,95446.56
2018-09-15T06:38:29.956Z,95435.13
2018-09-15T06:40:58.545Z,95453.30
2018-09-15T06:43:27.586Z,95062.05
2018-09-15T06:45:55.531Z,95457.56
2018-09-15T06:48:23.585Z,95456.92
2018-09-15T06:50:52.680Z,95460.69
2018-09-15T06:53:22.081Z,95458.68
2018-09-15T06:55:50.221Z,95456.40
2018-09-15T06:58:18.229Z,95449.42
2018-09-15T07:00:46.210Z,95455.89
2018-09-15T07:03:15.859Z,95460.32
2018-09-15T07:05:43.842Z,95457.94
2018-09-15T07:08:11.942Z,95463.22
2018-09-15T07:10:39.874Z,95461.14
2018-09-15T07:13:07.998Z,95461.75
2018-09-15T07:15:35.956Z,95461.64
2018-09-15T07:18:04.017Z,95458.89
2018-09-15T07:20:31.971Z,95462.91
2018-09-15T07:22:59.845Z,95462.05
2018-09-15T07:25:28.190Z,95462.91
2018-09-15T07:27:56.278Z,95458.16
2018-09-15T07:30:24.186Z,95454.45
2018-09-15T07:32:52.402Z,95461.25
2018-09-15T07:35:20.375Z,95459.78
2018-09-15T07:37:48.372Z,95456.52
2018-09-15T07:40:17.590Z,95457.73
2018-09-15T07:42:45.672Z,95454.16
2018-09-15T07:45:13.678Z,95461.31
2018-09-15T07:47:41.685Z,95456.96
2018-09-15T07:50:13.795Z,95457.91
2018-09-15T07:52:46.179Z,95455.27
2018-09-15T07:55:14.315Z,95461.66
2018-09-15T07:57:42.483Z,95456.81
2018-09-15T08:00:10.422Z,95456.92
2018-09-15T08:02:38.388Z,95462.42
2018-09-15T08:05:06.890Z,95458.73
2018-09-15T08:07:34.849Z,95457.64
2018-09-15T08:10:02.818Z,95460.94
2018-09-15T08:12:30.774Z,95421.58
2018-09-15T08:14:58.794Z,95466.46
2018-09-15T08:17:27.038Z,95459.56
2018-09-15T08:19:55.062Z,95461.41
2018-09-15T08:22:23.777Z,95465.00
2018-09-15T08:24:51.910Z,95463.00
2018-09-15T08:27:19.877Z,95467.08
2018-09-15T08:29:49.251Z,95455.30
2018-09-15T08:32:17.195Z,95466.80
2018-09-15T08:34:45.487Z,95451.94
2018-09-15T08:37:13.428Z,95451.11
2018-09-15T08:39:41.402Z,95446.66
2018-09-15T08:42:09.458Z,95453.08
2018-09-15T08:44:37.422Z,95450.28
2018-09-15T08:47:06.101Z,95449.70
2018-09-15T08:49:34.090Z,95441.23
2018-09-15T08:52:02.189Z,95445.32
2018-09-15T08:54:30.198Z,95447.20
2018-09-15T08:56:58.280Z,95446.38
2018-09-15T08:59:26.150Z,95442.44
2018-09-15T09:01:54.766Z,95441.11
2018-09-15T09:04:22.914Z,95442.13
2018-09-15T09:06:50.861Z,95431.94
2018-09-15T09:09:18.783Z,95444.09
2018-09-15T09:11:46.911Z,95439.08
2018-09-15T09:14:14.895Z,95435.14
2018-09-15T09:16:42.904Z,95435.67
2018-09-15T09:19:10.933Z,95428.84
2018-09-15T09:21:38.907Z,95432.09
2018-09-15T09:24:06.850Z,95426.61
2018-09-15T09:26:34.873Z,95429.91
2018-09-15T09:29:02.986Z,95421.95
2018-09-15T09:31:30.962Z,95429.72
2018-09-15T09:33:59.015Z,95423.53
2018-09-15T09:36:27.039Z,95419.95
2018-09-15T09:38:55.311Z,95415.62
2018-09-15T09:41:23.365Z,95415.84
2018-09-15T09:43:51.426Z,95414.55
2018-09-15T09:46:19.509Z,95411.22
2018-09-15T09:48:47.466Z,95414.58
2018-09-15T09:51:15.492Z,95410.88
2018-09-15T09:53:43.487Z,95406.69
2018-09-15T09:56:11.589Z,95411.06
2018-09-15T09:58:39.694Z,95409.00
2018-09-15T10:01:13.252Z,95405.80
2018-09-15T10:03:41.280Z,95406.40
2018-09-15T10:06:09.237Z,95397.77
2018-09-15T10:08:37.560Z,95398.20
2018-09-15T10:11:05.680Z,95400.61
2018-09-15T10:13:33.856Z,95396.58
2018-09-15T10:16:01.872Z,95395.77
2018-09-15T10:18:29.750Z,95393.09
2018-09-15T10:20:57.734Z,95393.19
2018-09-15T10:23:25.761Z,95386.97
2018-09-15T10:25:53.938Z,95387.38
2018-09-15T10:28:21.989Z,95382.58
2018-09-15T10:30:49.992Z,95376.45
2018-09-15T10:33:17.995Z,95381.19
2018-09-15T10:35:46.526Z,95384.91
2018-09-15T10:38:14.688Z,95385.00
2018-09-15T10:40:42.722Z,95384.17
2018-09-15T10:43:10.739Z,95381.59
2018-09-15T10:45:38.837Z,95385.39
2018-09-15T10:48:06.936Z,95376.80
2018-09-15T10:50:35.167Z,95377.25
2018-09-15T10:53:03.324Z,95368.70
2018-09-15T10:55:31.480Z,95364.84
2018-09-15T10:57:59.439Z,95370.09
2018-09-15T11:00:28.554Z,95372.66
2018-09-15T11:02:56.464Z,95373.59
2018-09-15T11:05:24.456Z,95368.48
2018-09-15T11:07:52.541Z,95363.41
2018-09-15T11:10:20.603Z,95364.91
2018-09-15T11:12:48.565Z,95366.05
2018-09-15T11:15:16.529Z,95360.75
2018-09-15T11:17:44.454Z,95352.79
2018-09-15T11:20:12.437Z,95357.44
2018-09-15T11:22:40.433Z,95342.09
2018-09-15T11:25:09.261Z,95355.55
2018-09-15T11:27:37.348Z,95352.34
2018-09-15T11:30:05.933Z,95350.42
2018-09-15T11:32:34.279Z,95354.92
2018-09-15T11:35:02.416Z,95342.56
2018-09-15T11:37:31.311Z,95342.03
2018-09-15T11:39:59.359Z,95335.42
2018-09-15T11:42:27.804Z,95343.20
2018-09-15T11:44:55.847Z,95344.55
2018-09-15T11:47:23.983Z,95348.34
2018-09-15T11:49:52.088Z,95337.75
2018-09-15T11:52:21.409Z,95336.91
2018-09-15T11:54:49.686Z,95340.91
2018-09-15T11:57:18.256Z,95333.38
2018-09-15T11:59:47.304Z,95325.84
2018-09-15T12:02:15.545Z,95330.61
2018-09-15T12:04:47.504Z,95327.52
2018-09-15T12:07:15.761Z,95331.40
2018-09-15T12:09:44.563Z,95328.22
2018-09-15T12:12:12.824Z,95325.01
2018-09-15T12:14:40.902Z,95320.31
2018-09-15T12:17:08.876Z,95322.88
2018-09-15T12:19:37.091Z,95319.73
2018-09-15T12:22:04.896Z,95322.38
2018-09-15T12:24:33.247Z,95318.00
2018-09-15T12:27:01.273Z,95320.22
2018-09-15T12:29:29.194Z,95315.96
2018-09-15T12:31:57.361Z,95319.67
2018-09-15T12:34:25.398Z,95320.38
2018-09-15T12:36:54.899Z,95321.03
2018-09-15T12:39:23.286Z,95318.25
2018-09-15T12:41:51.420Z,95318.14
2018-09-15T12:44:19.531Z,95322.23
2018-09-15T12:46:47.586Z,95312.77
2018-09-15T12:49:15.971Z,95318.70
2018-09-15T12:51:44.183Z,95322.82
2018-09-15T12:54:12.309Z,95317.55
2018-09-15T12:56:40.316Z,95313.29
2018-09-15T12:59:08.786Z,95316.49
2018-09-15T13:01:37.717Z,95314.63
2018-09-15T13:04:05.853Z,95312.36
2018-09-15T13:06:33.885Z,95316.86
2018-09-15T13:09:02.910Z,95308.80
2018-09-15T13:11:30.902Z,95308.41
2018-09-15T13:13:59.259Z,95309.02
2018-09-15T13:16:27.253Z,95309.00
2018-09-15T13:18:55.398Z,95317.44
2018-09-15T13:21:23.380Z,95306.94
2018-09-15T13:23:51.424Z,95305.52
2018-09-15T13:26:19.374Z,95303.03
2018-09-15T13:28:47.568Z,95299.98
2018-09-15T13:31:15.707Z,95302.99
2018-09-15T13:33:43.961Z,95300.11
2018-09-15T13:36:12.187Z,95299.28
2018-09-15T13:38:40.355Z,95293.84
2018-09-15T13:41:08.350Z,95291.55
2018-09-15T13:43:36.443Z,95295.84
2018-09-15T13:46:04.910Z,95298.14
2018-09-15T13:48:33.067Z,95289.66
2018-09-15T13:51:01.039Z,95297.71
2018-09-15T13:53:29.198Z,95294.33
2018-09-15T13:55:57.415Z,95303.53
2018-09-15T13:58:25.437Z,95300.58
2018-09-15T14:00:54.061Z,95291.84
2018-09-15T14:03:22.011Z,95293.92
2018-09-15T14:05:50.043Z,95303.31
2018-09-15T14:08:19.272Z,95302.05
2018-09-15T14:10:47.358Z,95304.47
2018-09-15T14:13:17.931Z,95307.01
2018-09-15T14:15:46.124Z,95305.53
2018-09-15T14:18:14.090Z,95302.17
2018-09-15T14:20:42.246Z,95305.85
2018-09-15T14:23:10.387Z,95305.13
2018-09-15T14:25:38.359Z,95306.63
2018-09-15T14:28:06.437Z,95309.13
2018-09-15T14:30:34.533Z,95302.66
2018-09-15T14:33:02.561Z,95305.99
2018-09-15T14:35:30.791Z,95300.09
2018-09-15T14:37:58.821Z,95311.77
2018-09-15T14:40:26.814Z,95314.19
2018-09-15T14:42:54.770Z,95309.47
2018-09-15T14:45:22.735Z,95315.03
2018-09-15T14:47:50.650Z,95317.34
2018-09-15T14:50:18.656Z,95320.28
2018-09-15T14:52:47.257Z,95316.96
2018-09-15T14:55:15.379Z,95325.41
2018-09-15T14:57:43.270Z,95322.57
2018-09-15T15:00:11.256Z,95322.57
2018-09-15T15:02:39.551Z,95326.41
2018-09-15T15:05:07.572Z,95322.47
2018-09-15T15:07:35.613Z,95325.91
2018-09-15T15:10:03.662Z,95328.86
2018-09-15T15:12:31.836Z,95048.23
2018-09-15T15:14:59.832Z,95319.22
2018-09-15T15:17:27.763Z,95321.53
2018-09-15T15:19:55.778Z,95329.45
2018-09-15T15:22:24.454Z,95325.45
2018-09-15T15:24:52.594Z,95323.13
2018-09-15T15:27:20.559Z,95334.92
2018-09-15T15:29:49.650Z,95337.20
2018-09-15T15:32:17.630Z,95338.46
2018-09-15T15:34:45.829Z,95339.45
2018-09-15T15:37:14.217Z,95350.88
2018-09-15T15:39:42.401Z,95347.45
2018-09-15T15:42:10.607Z,95352.48
2018-09-15T15:44:38.533Z,95353.47
2018-09-15T15:47:06.595Z,95351.72
2018-09-15T15:49:34.805Z,95356.52
2018-09-15T15:52:04.174Z,95357.95
2018-09-15T15:54:32.233Z,95350.38
2018-09-15T15:57:02.729Z,95350.70
2018-09-15T15:59:32.206Z,95365.17
2018-09-15T16:02:00.432Z,95360.05
2018-09-15T16:04:28.480Z,95367.60
2018-09-15T16:06:57.925Z,95369.20
2018-09-15T16:09:28.316Z,95376.91
2018-09-15T16:11:56.291Z,95378.80
2018-09-15T16:14:24.354Z,95376.45
2018-09-15T16:16:52.427Z,95381.88
2018-09-15T16:19:20.699Z,95384.88
2018-09-15T16:21:48.909Z,95384.25
2018-09-15T16:24:16.998Z,95395.55
2018-09-15T16:26:45.016Z,95402.23
2018-09-15T16:29:13.031Z,95399.89
2018-09-15T16:31:42.309Z,95403.30
2018-09-15T16:34:10.277Z,95405.64
2018-09-15T16:36:38.420Z,95409.27
2018-09-15T16:39:09.482Z,95424.26
2018-09-15T16:41:38.203Z,95421.96
2018-09-15T16:44:06.451Z,95419.38
2018-09-15T16:46:34.985Z,95422.55
2018-09-15T16:49:03.117Z,95424.79
2018-09-15T16:51:31.113Z,95415.38
2018-09-15T16:53:59.114Z,95422.33
2018-09-15T16:56:27.134Z,95425.97
2018-09-15T16:58:55.166Z,95429.59
2018-09-15T17:01:23.371Z,95415.34
2018-09-15T17:03:51.404Z,95418.10
2018-09-15T17:06:19.790Z,95418.86
2018-09-15T17:08:48.067Z,95423.38
2018-09-15T17:11:16.161Z,95429.36
2018-09-15T17:13:44.230Z,95435.50
2018-09-15T17:16:12.290Z,95427.55
2018-09-15T17:18:40.359Z,95429.33
2018-09-15T17:21:08.485Z,95438.50
2018-09-15T17:23:36.577Z,95441.82
2018-09-15T17:26:04.574Z,95448.27
2018-09-15T17:28:32.896Z,95442.59
2018-09-15T17:31:01.213Z,95448.52
2018-09-15T17:33:29.345Z,95450.70
2018-09-15T17:35:57.613Z,95454.02
2018-09-15T17:38:25.523Z,95457.21
2018-09-15T17:40:53.482Z,95458.30
2018-09-15T17:43:21.384Z,95473.73
2018-09-15T17:45:49.992Z,95478.66
2018-09-15T17:48:18.088Z,95475.59
2018-09-15T17:50:46.698Z,95472.59
2018-09-15T17:53:14.798Z,95482.38
2018-09-15T17:55:42.773Z,95483.13
2018-09-15T17:58:10.774Z,95487.37
2018-09-15T18:00:38.927Z,95485.22
2018-09-15T18:03:06.934Z,95487.83
2018-09-15T18:05:35.019Z,95487.22
2018-09-15T18:08:03.107Z,95491.75
2018-09-15T18:10:31.909Z,95492.33
2018-09-15T18:13:00.577Z,95496.70
2018-09-15T18:15:28.676Z,95505.45
2018-09-15T18:17:56.766Z,95502.69
2018-09-15T18:20:24.682Z,95507.95
2018-09-15T18:22:52.789Z,95505.55
2018-09-15T18:25:20.832Z,95512.09
2018-09-15T18:27:52.105Z,95512.05
2018-09-15T18:30:20.011Z,95514.92
2018-09-15T18:32:47.903Z,95520.97
2018-09-15T18:35:17.556Z,95526.12
2018-09-15T18:37:45.558Z,95521.65
2018-09-15T18:40:13.505Z,95527.66
2018-09-15T18:42:42.242Z,95534.22
2018-09-15T18:45:10.260Z,95537.46
2018-09-15T18:47:39.354Z,95546.23
2018-09-15T18:50:07.453Z,95546.73
2018-09-15T18:52:35.577Z,95546.62
2018-09-15T18:55:03.978Z,95552.48
2018-09-15T18:57:32.841Z,95557.02
2018-09-15T19:00:01.063Z,95555.64
2018-09-15T19:02:29.141Z,95555.53
2018-09-15T19:04:57.110Z,95559.56
2018-09-15T19:07:25.266Z,95561.31
2018-09-15T19:09:53.472Z,95570.81
2018-09-15T19:12:21.504Z,95569.90
2018-09-15T19:14:49.719Z,95575.07
2018-09-15T19:17:17.852Z,95575.76
2018-09-15T19:19:46.887Z,95567.93
2018-09-15T19:22:16.134Z,95580.45
2018-09-15T19:24:44.090Z,95575.00
2018-09-15T19:27:13.560Z,95579.09
2018-09-15T19:29:48.650Z,95578.19
2018-09-15T19:35:11.212Z,95588.30
2018-09-15T19:37:43.148Z,95586.14
2018-09-15T19:40:11.985Z,95588.35
2018-09-15T19:42:40.000Z,95589.46
2018-09-15T19:45:10.614Z,95590.84
2018-09-15T19:47:38.806Z,95592.27
2018-09-15T19:50:06.823Z,95603.63
2018-09-15T19:52:34.964Z,95607.21
2018-09-15T19:55:03.114Z,95608.39
2018-09-15T19:57:33.025Z,95606.28
2018-09-15T20:00:01.070Z,95610.05
2018-09-15T20:02:29.403Z,95606.72
2018-09-15T20:04:57.600Z,95606.25
2018-09-15T20:07:25.652Z,95607.15
2018-09-15T20:09:53.982Z,95604.08
2018-09-15T20:12:21.903Z,95598.56
2018-09-15T20:14:50.043Z,95596.48
2018-09-15T20:17:17.462Z,95605.66
2018-09-15T20:19:44.168Z,95604.50
2018-09-15T20:22:12.858Z,95602.25
2018-09-15T20:24:41.941Z,95598.77
2018-09-15T20:27:09.957Z,95605.70
2018-09-15T20:29:38.074Z,95606.81
2018-09-15T20:32:07.195Z,95611.56
2018-09-15T20:34:35.848Z,95614.21
2018-09-15T20:37:04.088Z,95625.13
2018-09-15T20:39:32.481Z,95622.14
2018-09-15T20:42:02.493Z,95635.48
2018-09-15T20:44:30.570Z,95628.23
2018-09-15T20:46:58.665Z,95535.20
2018-09-15T20:49:26.556Z,95632.27
2018-09-15T20:51:54.510Z,95629.75
2018-09-15T20:54:22.451Z,95631.13
2018-09-15T20:56:50.526Z,95631.75
2018-09-15T20:59:18.455Z,95632.98
2018-09-15T21:01:46.652Z,95638.67
2018-09-15T21:04:18.565Z,95637.80
2018-09-15T21:06:46.793Z,95636.80
2018-09-15T21:09:14.905Z,95638.31
2018-09-15T21:11:42.880Z,95639.80
2018-09-15T21:14:11.244Z,95635.66
2018-09-15T21:16:39.330Z,95631.01
2018-09-15T21:19:07.345Z,95638.27
2018-09-15T21:21:35.966Z,95632.75
2018-09-15T21:24:04.075Z,95636.05
2018-09-15T21:26:32.035Z,95643.41
2018-09-15T21:29:00.307Z,95641.17
2018-09-15T21:31:28.330Z,95644.30
2018-09-15T21:33:56.376Z,95635.73
2018-09-15T21:36:24.464Z,95641.92
2018-09-15T21:38:52.592Z,95641.06
2018-09-15T21:41:20.579Z,95647.09
2018-09-15T21:43:48.525Z,95643.45
2018-09-15T21:46:16.592Z,95645.84
2018-09-15T21:48:44.501Z,95655.09
2018-09-15T21:51:13.588Z,95655.09
2018-09-15T21:53:41.541Z,95661.34
2018-09-15T21:56:09.681Z,95657.09
2018-09-15T21:58:37.722Z,95654.58
2018-09-15T22:01:05.962Z,95658.97
2018-09-15T22:03:39.481Z,95666.36
2018-09-15T22:06:07.569Z,95653.22
2018-09-15T22:08:35.606Z,95657.61
2018-09-15T22:11:03.717Z,95661.73
2018-09-15T22:13:31.724Z,95662.64
2018-09-15T22:15:59.852Z,95663.13
2018-09-15T22:18:27.961Z,95664.89
2018-09-15T22:20:55.892Z,95666.14
2018-09-15T22:23:24.090Z,95665.28
2018-09-15T22:25:52.078Z,95674.42
2018-09-15T22:28:20.323Z,95671.67
2018-09-15T22:30:48.303Z,95677.78
2018-09-15T22:33:16.936Z,95648.49
2018-09-15T22:35:44.906Z,95673.16
2018-09-15T22:38:12.945Z,95672.66
2018-09-15T22:40:41.122Z,95670.15
2018-09-15T22:43:09.090Z,95670.53
2018-09-15T22:45:37.085Z,95669.36
2018-09-15T22:48:05.090Z,95672.90
2018-09-15T22:50:32.956Z,95669.16
2018-09-15T22:53:00.922Z,95668.12
2018-09-15T22:55:28.819Z,95673.98
2018-09-15T22:57:56.973Z,95679.36
2018-09-15T23:00:24.992Z,95679.36
2018-09-15T23:02:53.073Z,95678.36
2018-09-15T23:05:21.010Z,95674.24
2018-09-15T23:07:48.898Z,95671.98
2018-09-15T23:10:16.796Z,95674.84
2018-09-15T23:12:44.707Z,95679.25
2018-09-15T23:15:12.665Z,95688.48
2018-09-15T23:17:43.482Z,95685.47
2018-09-15T23:20:11.457Z,95683.73
2018-09-15T23:22:39.449Z,95687.09
2018-09-15T23:25:07.396Z,95686.48
2018-09-15T23:27:35.329Z,95687.70
2018-09-15T23:30:03.431Z,95685.06
2018-09-15T23:32:31.298Z,95688.06
2018-09-15T23:34:59.208Z,95680.19
2018-09-15T23:37:27.146Z,95679.94
2018-09-15T23:39:55.088Z,95682.69
2018-09-15T23:42:23.177Z,95687.44
2018-09-15T23:44:52.282Z,95689.80
2018-09-15T23:47:20.361Z,95689.15
2018-09-15T23:49:48.374Z,95686.68
2018-09-15T23:52:16.344Z,95689.03
2018-09-15T23:54:44.334Z,95676.66
2018-09-15T23:57:12.243Z,95681.55
2018-09-15T23:59:40.412Z,95679.93
